createdAt,value
2023-05-11T00:01:59.573Z,93.12
2023-05-11T00:04:26.225Z,93.76
2023-05-11T00:06:52.895Z,93.99
2023-05-11T00:09:19.350Z,93.96
2023-05-11T00:11:45.829Z,93.95
2023-05-11T00:14:12.209Z,93.73
2023-05-11T00:16:38.640Z,94.50
2023-05-11T00:19:05.442Z,94.88
2023-05-11T00:21:32.277Z,94.65
2023-05-11T00:23:59.810Z,94.10
2023-05-11T00:26:26.748Z,95.46
2023-05-11T00:28:53.263Z,94.99
2023-05-11T00:31:20.380Z,95.25
2023-05-11T00:33:46.824Z,95.42
2023-05-11T00:36:13.250Z,94.79
2023-05-11T00:38:42.628Z,94.78
2023-05-11T00:41:10.055Z,95.60
2023-05-11T00:43:36.528Z,94.91
2023-05-11T00:46:03.733Z,95.54
2023-05-11T00:48:30.757Z,95.27
2023-05-11T00:50:59.315Z,95.98
2023-05-11T00:53:25.791Z,95.28
2023-05-11T00:55:54.011Z,95.19
2023-05-11T00:58:20.636Z,95.97
2023-05-11T01:00:50.011Z,95.78
2023-05-11T01:03:17.020Z,95.87
2023-05-11T01:06:01.505Z,95.90
2023-05-11T01:08:40.572Z,95.99
2023-05-11T01:11:16.621Z,96.00
2023-05-11T01:13:52.358Z,96.46
2023-05-11T01:16:21.377Z,96.30
2023-05-11T01:19:04.262Z,96.93
2023-05-11T01:21:35.400Z,97.10
2023-05-11T01:24:27.096Z,97.28
2023-05-11T01:27:08.977Z,97.12
2023-05-11T01:30:05.155Z,96.98
2023-05-11T01:32:34.427Z,97.00
2023-05-11T01:35:11.303Z,96.53
2023-05-11T01:37:41.737Z,96.88
2023-05-11T01:40:16.776Z,96.88
2023-05-11T01:43:05.211Z,97.43
2023-05-11T01:45:33.782Z,98.20
2023-05-11T01:48:03.521Z,97.81
2023-05-11T01:50:31.886Z,98.86
2023-05-11T01:53:01.040Z,98.51
2023-05-11T01:55:28.391Z,98.26
2023-05-11T01:57:55.869Z,97.14
2023-05-11T02:00:22.622Z,97.44
2023-05-11T02:02:49.673Z,96.53
2023-05-11T02:05:21.268Z,95.93
2023-05-11T02:07:50.545Z,96.39
2023-05-11T02:10:19.055Z,96.32
2023-05-11T02:12:46.796Z,96.69
2023-05-11T02:15:13.799Z,96.44
2023-05-11T02:17:40.911Z,96.29
2023-05-11T02:20:08.679Z,95.82
2023-05-11T02:22:36.003Z,95.10
2023-05-11T02:25:04.023Z,95.36
2023-05-11T02:27:30.561Z,96.13
2023-05-11T02:29:57.872Z,95.95
2023-05-11T02:32:25.658Z,95.64
2023-05-11T02:35:01.941Z,95.51
2023-05-11T02:37:30.411Z,95.62
2023-05-11T02:40:03.697Z,95.72
2023-05-11T02:42:36.628Z,96.04
2023-05-11T02:45:09.369Z,95.47
2023-05-11T02:47:42.793Z,95.66
2023-05-11T02:50:09.975Z,95.61
2023-05-11T02:52:44.978Z,95.19
2023-05-11T02:55:13.597Z,94.85
2023-05-11T02:57:40.148Z,95.25
2023-05-11T03:00:08.322Z,95.10
2023-05-11T03:02:35.161Z,94.33
2023-05-11T03:05:01.716Z,94.25
2023-05-11T03:07:28.209Z,93.87
2023-05-11T03:09:55.073Z,94.02
2023-05-11T03:12:21.614Z,93.91
2023-05-11T03:14:48.271Z,94.62
2023-05-11T03:17:15.939Z,93.94
2023-05-11T03:19:42.468Z,94.10
2023-05-11T03:22:10.117Z,94.02
2023-05-11T03:24:36.547Z,93.75
2023-05-11T03:27:04.385Z,93.36
2023-05-11T03:29:31.790Z,93.63
2023-05-11T03:31:58.375Z,93.65
2023-05-11T03:34:24.863Z,92.76
2023-05-11T03:36:52.694Z,90.69
2023-05-11T03:39:20.225Z,89.87
2023-05-11T03:41:49.767Z,88.73
2023-05-11T03:44:19.913Z,85.77
2023-05-11T03:46:47.869Z,83.27
2023-05-11T03:49:15.673Z,82.73
2023-05-11T03:51:42.540Z,81.65
2023-05-11T03:54:08.975Z,79.96
2023-05-11T03:56:36.674Z,79.42
2023-05-11T03:59:04.182Z,79.57
2023-05-11T04:01:30.902Z,77.07
2023-05-11T04:03:57.712Z,76.58
2023-05-11T04:06:24.258Z,77.47
2023-05-11T04:08:50.777Z,77.91
2023-05-11T04:11:17.273Z,78.11
2023-05-11T04:13:43.640Z,77.64
2023-05-11T04:16:10.157Z,77.73
2023-05-11T04:18:36.675Z,76.80
2023-05-11T04:21:03.147Z,77.14
2023-05-11T04:23:30.552Z,76.01
2023-05-11T04:25:57.525Z,75.55
2023-05-11T04:28:27.534Z,75.60
2023-05-11T04:30:56.366Z,74.56
2023-05-11T04:33:23.495Z,74.61
2023-05-11T04:35:51.529Z,74.05
2023-05-11T04:38:18.978Z,73.93
2023-05-11T04:40:45.647Z,74.09
2023-05-11T04:43:12.013Z,74.19
2023-05-11T04:45:38.394Z,72.60
2023-05-11T04:48:05.294Z,71.00
2023-05-11T04:50:32.246Z,71.06
2023-05-11T04:52:58.682Z,71.02
2023-05-11T04:55:24.998Z,69.86
2023-05-11T04:57:51.513Z,69.06
2023-05-11T05:00:18.792Z,68.73
2023-05-11T05:02:45.491Z,68.59
2023-05-11T05:05:12.000Z,66.76
2023-05-11T05:07:38.620Z,67.98
2023-05-11T05:10:08.799Z,66.93
2023-05-11T05:12:36.808Z,66.01
2023-05-11T05:15:03.898Z,65.38
2023-05-11T05:17:30.301Z,64.25
2023-05-11T05:19:57.968Z,62.95
2023-05-11T05:22:25.280Z,62.17
2023-05-11T05:24:51.802Z,60.91
2023-05-11T05:27:18.252Z,61.43
2023-05-11T05:29:44.710Z,60.52
2023-05-11T05:32:11.237Z,59.74
2023-05-11T05:34:37.673Z,60.38
2023-05-11T05:37:04.146Z,60.29
2023-05-11T05:39:30.733Z,59.35
2023-05-11T05:41:58.102Z,59.16
2023-05-11T05:44:24.492Z,58.50
2023-05-11T05:46:50.952Z,58.07
2023-05-11T05:49:17.344Z,57.36
2023-05-11T05:51:44.031Z,57.54
2023-05-11T05:54:11.286Z,56.63
2023-05-11T05:56:37.779Z,56.31
2023-05-11T05:59:04.102Z,55.51
2023-05-11T06:01:30.543Z,54.32
2023-05-11T06:03:57.101Z,53.70
2023-05-11T06:06:23.609Z,53.02
2023-05-11T06:08:49.987Z,52.79
2023-05-11T06:11:16.424Z,51.35
2023-05-11T06:13:43.844Z,50.50
2023-05-11T06:16:10.769Z,51.28
2023-05-11T06:18:37.165Z,50.06
2023-05-11T06:21:03.575Z,49.45
2023-05-11T06:23:29.987Z,48.59
2023-05-11T06:25:56.438Z,47.80
2023-05-11T06:28:26.033Z,46.53
2023-05-11T06:30:52.705Z,47.63
2023-05-11T06:33:19.138Z,47.10
2023-05-11T06:35:47.588Z,47.31
2023-05-11T06:38:14.001Z,46.19
2023-05-11T06:40:40.816Z,45.62
2023-05-11T06:43:07.269Z,45.27
2023-05-11T06:45:33.949Z,45.66
2023-05-11T06:48:00.828Z,46.30
2023-05-11T06:50:27.795Z,46.38
2023-05-11T06:52:54.560Z,45.37
2023-05-11T06:55:21.118Z,44.81
2023-05-11T06:57:47.614Z,44.89
2023-05-11T07:00:14.598Z,44.40
2023-05-11T07:02:41.323Z,43.79
2023-05-11T07:05:08.166Z,44.59
2023-05-11T07:07:34.650Z,44.14
2023-05-11T07:10:01.384Z,44.16
2023-05-11T07:12:27.828Z,43.52
2023-05-11T07:14:54.312Z,43.03
2023-05-11T07:17:20.791Z,43.08
2023-05-11T07:19:47.250Z,41.75
2023-05-11T07:22:15.037Z,41.10
2023-05-11T07:24:42.286Z,41.36
2023-05-11T07:27:08.641Z,40.12
2023-05-11T07:29:35.195Z,41.61
2023-05-11T07:32:02.423Z,41.37
2023-05-11T07:34:28.957Z,40.88
2023-05-11T07:36:55.609Z,41.28
2023-05-11T07:39:22.202Z,41.74
2023-05-11T07:41:48.558Z,43.00
2023-05-11T07:44:15.571Z,42.07
2023-05-11T07:46:42.100Z,40.32
2023-05-11T07:49:17.055Z,37.75
2023-05-11T07:51:47.127Z,37.44
2023-05-11T07:54:13.755Z,38.28
2023-05-11T07:56:40.334Z,37.08
2023-05-11T07:59:06.804Z,35.44
2023-05-11T08:01:33.490Z,36.39
2023-05-11T08:04:00.365Z,37.80
2023-05-11T08:06:27.390Z,37.27
2023-05-11T08:08:53.843Z,36.99
2023-05-11T08:11:20.840Z,36.66
2023-05-11T08:13:47.448Z,35.31
2023-05-11T08:16:14.077Z,35.56
2023-05-11T08:18:40.660Z,35.01
2023-05-11T08:21:07.598Z,36.06
2023-05-11T08:23:34.197Z,35.21
2023-05-11T08:26:01.308Z,36.35
2023-05-11T08:28:27.779Z,36.69
2023-05-11T08:30:58.512Z,36.67
2023-05-11T08:33:37.582Z,36.57
2023-05-11T08:36:06.351Z,36.35
2023-05-11T08:38:33.423Z,36.02
2023-05-11T08:41:01.793Z,35.71
2023-05-11T08:43:29.204Z,34.33
2023-05-11T08:45:58.158Z,34.56
2023-05-11T08:48:24.680Z,34.81
2023-05-11T08:50:51.982Z,34.26
2023-05-11T08:53:18.817Z,33.61
2023-05-11T08:55:46.814Z,34.24
2023-05-11T08:58:15.159Z,33.46
2023-05-11T09:00:41.985Z,33.43
2023-05-11T09:03:09.127Z,34.77
2023-05-11T09:05:36.559Z,35.28
2023-05-11T09:08:04.433Z,35.30
2023-05-11T09:10:30.953Z,33.21
2023-05-11T09:12:57.468Z,33.47
2023-05-11T09:15:23.981Z,34.51
2023-05-11T09:17:50.456Z,34.35
2023-05-11T09:20:26.921Z,34.17
2023-05-11T09:22:53.824Z,33.74
2023-05-11T09:25:20.658Z,34.66
2023-05-11T09:27:48.145Z,34.65
2023-05-11T09:30:22.162Z,32.61
2023-05-11T09:32:59.893Z,32.86
2023-05-11T09:35:31.043Z,32.55
2023-05-11T09:38:06.879Z,32.04
2023-05-11T09:40:37.487Z,30.45
2023-05-11T09:43:16.433Z,29.69
2023-05-11T09:45:45.124Z,28.76
2023-05-11T09:48:21.004Z,30.54
2023-05-11T09:50:52.218Z,31.87
2023-05-11T09:53:18.838Z,30.95
2023-05-11T09:55:54.235Z,30.03
2023-05-11T09:58:20.958Z,30.97
2023-05-11T10:00:51.266Z,31.24
2023-05-11T10:03:18.676Z,30.83
2023-05-11T10:05:59.484Z,32.99
2023-05-11T10:08:30.813Z,32.45
2023-05-11T10:10:57.842Z,30.27
2023-05-11T10:13:24.722Z,28.16
2023-05-11T10:15:54.763Z,30.02
2023-05-11T10:18:21.526Z,30.45
2023-05-11T10:20:48.616Z,31.32
2023-05-11T10:23:17.631Z,28.55
2023-05-11T10:25:44.607Z,29.75
2023-05-11T10:28:11.000Z,29.72
2023-05-11T10:30:37.892Z,28.05
2023-05-11T10:33:06.797Z,27.09
2023-05-11T10:35:33.363Z,28.26
2023-05-11T10:38:00.818Z,29.81
2023-05-11T10:40:27.449Z,27.86
2023-05-11T10:43:14.967Z,28.75
2023-05-11T10:46:00.345Z,28.71
2023-05-11T10:48:42.833Z,31.53
2023-05-11T10:51:23.174Z,29.50
2023-05-11T10:54:27.592Z,28.17
2023-05-11T10:57:07.010Z,27.22
2023-05-11T10:59:48.644Z,28.86
2023-05-11T11:02:17.094Z,28.62
2023-05-11T11:04:51.837Z,26.99
2023-05-11T11:07:19.730Z,27.62
2023-05-11T11:09:56.319Z,29.02
2023-05-11T11:12:24.519Z,28.68
2023-05-11T11:14:54.984Z,28.80
2023-05-11T11:17:23.378Z,29.77
2023-05-11T11:19:49.765Z,29.62
2023-05-11T11:22:34.659Z,28.48
2023-05-11T11:25:02.286Z,29.10
2023-05-11T11:27:41.017Z,30.08
2023-05-11T11:30:23.086Z,29.72
2023-05-11T11:32:52.028Z,29.01
2023-05-11T11:35:43.527Z,30.25
2023-05-11T11:38:16.219Z,29.25
2023-05-11T11:40:51.261Z,29.57
2023-05-11T11:43:24.627Z,28.86
2023-05-11T11:45:55.925Z,30.36
2023-05-11T11:48:33.374Z,31.88
2023-05-11T11:51:08.507Z,32.53
2023-05-11T11:53:38.167Z,32.16
2023-05-11T11:56:06.296Z,31.11
2023-05-11T11:58:42.424Z,31.89
2023-05-11T12:01:13.607Z,33.99
2023-05-11T12:03:43.978Z,34.88
2023-05-11T12:06:11.348Z,35.27
2023-05-11T12:08:39.070Z,35.75
2023-05-11T12:11:06.215Z,35.79
2023-05-11T12:13:33.304Z,36.21
2023-05-11T12:16:17.482Z,36.82
2023-05-11T12:18:54.593Z,36.69
2023-05-11T12:21:27.686Z,36.52
2023-05-11T12:23:58.516Z,37.14
2023-05-11T12:26:26.294Z,37.14
2023-05-11T12:29:06.847Z,36.50
2023-05-11T12:31:37.258Z,36.99
2023-05-11T12:34:03.771Z,37.01
2023-05-11T12:36:30.455Z,36.11
2023-05-11T12:38:56.907Z,36.95
2023-05-11T12:41:23.958Z,36.69
2023-05-11T12:43:51.003Z,36.82
2023-05-11T12:46:18.316Z,36.95
2023-05-11T12:48:46.616Z,37.27
2023-05-11T12:51:13.498Z,37.70
2023-05-11T12:53:41.244Z,36.95
2023-05-11T12:56:08.608Z,37.15
2023-05-11T12:58:40.073Z,36.35
2023-05-11T13:01:09.368Z,36.39
2023-05-11T13:03:36.876Z,36.12
2023-05-11T13:06:11.869Z,36.07
2023-05-11T13:08:45.550Z,35.43
2023-05-11T13:11:23.113Z,35.71
2023-05-11T13:13:50.378Z,35.82
2023-05-11T13:16:37.102Z,36.23
2023-05-11T13:19:06.227Z,36.60
2023-05-11T13:21:33.437Z,37.13
2023-05-11T13:24:02.046Z,36.51
2023-05-11T13:26:31.938Z,36.12
2023-05-11T13:29:08.750Z,35.83
2023-05-11T13:31:48.080Z,34.88
2023-05-11T13:34:15.239Z,34.90
2023-05-11T13:36:41.970Z,35.27
2023-05-11T13:39:08.618Z,35.15
2023-05-11T13:41:35.666Z,35.52
2023-05-11T13:44:02.803Z,33.78
2023-05-11T13:46:29.381Z,34.11
2023-05-11T13:48:55.877Z,33.79
2023-05-11T13:51:22.820Z,34.00
2023-05-11T13:53:49.266Z,33.19
2023-05-11T13:56:16.673Z,33.22
2023-05-11T13:58:43.295Z,32.65
2023-05-11T14:01:09.825Z,32.37
2023-05-11T14:03:36.527Z,32.20
2023-05-11T14:06:03.462Z,32.98
2023-05-11T14:08:29.927Z,33.70
2023-05-11T14:10:56.528Z,33.16
2023-05-11T14:13:23.792Z,32.04
2023-05-11T14:15:50.216Z,31.50
2023-05-11T14:18:16.859Z,31.81
2023-05-11T14:20:43.368Z,31.42
2023-05-11T14:23:09.904Z,32.50
2023-05-11T14:25:36.804Z,32.39
2023-05-11T14:28:03.311Z,32.34
2023-05-11T14:30:29.812Z,31.82
2023-05-11T14:32:57.028Z,32.25
2023-05-11T14:35:23.548Z,31.18
2023-05-11T14:37:49.983Z,31.78
2023-05-11T14:40:16.893Z,32.63
2023-05-11T14:42:43.430Z,32.39
2023-05-11T14:45:10.555Z,32.34
2023-05-11T14:47:37.153Z,31.51
2023-05-11T14:50:04.460Z,32.01
2023-05-11T14:52:30.928Z,31.57
2023-05-11T14:54:57.443Z,31.98
2023-05-11T14:57:23.967Z,31.70
2023-05-11T14:59:59.000Z,32.93
2023-05-11T15:02:26.462Z,32.37
2023-05-11T15:04:52.972Z,32.84
2023-05-11T15:07:19.490Z,32.01
2023-05-11T15:09:45.977Z,32.97
2023-05-11T15:12:12.567Z,31.34
2023-05-11T15:14:38.982Z,32.70
2023-05-11T15:17:05.736Z,31.30
2023-05-11T15:19:32.200Z,31.59
2023-05-11T15:21:58.725Z,31.96
2023-05-11T15:24:25.241Z,32.08
2023-05-11T15:26:51.731Z,31.83
2023-05-11T15:29:19.088Z,31.45
2023-05-11T15:31:45.806Z,31.72
2023-05-11T15:34:12.354Z,31.60
2023-05-11T15:36:39.806Z,31.71
2023-05-11T15:39:06.702Z,32.03
2023-05-11T15:41:34.113Z,31.83
2023-05-11T15:44:00.541Z,31.56
2023-05-11T15:46:27.274Z,31.83
2023-05-11T15:48:54.633Z,31.64
2023-05-11T15:51:21.783Z,31.38
2023-05-11T15:53:48.186Z,30.23
2023-05-11T15:56:14.597Z,30.56
2023-05-11T15:58:41.011Z,30.46
2023-05-11T16:01:07.515Z,30.67
2023-05-11T16:03:34.133Z,30.93
2023-05-11T16:06:00.793Z,30.89
2023-05-11T16:08:27.242Z,30.96
2023-05-11T16:10:53.835Z,30.31
2023-05-11T16:13:20.360Z,30.93
2023-05-11T16:15:46.899Z,30.86
2023-05-11T16:18:14.288Z,30.98
2023-05-11T16:20:40.912Z,30.83
2023-05-11T16:23:07.568Z,30.63
2023-05-11T16:25:33.934Z,31.00
2023-05-11T16:28:00.742Z,30.58
2023-05-11T16:30:27.741Z,30.40
2023-05-11T16:32:54.444Z,30.83
2023-05-11T16:35:21.223Z,30.72
2023-05-11T16:37:48.307Z,31.28
2023-05-11T16:40:18.298Z,31.30
2023-05-11T16:42:46.771Z,31.48
2023-05-11T16:45:13.267Z,31.81
2023-05-11T16:47:39.861Z,32.40
2023-05-11T16:50:06.726Z,31.83
2023-05-11T16:52:33.833Z,31.91
2023-05-11T16:55:00.310Z,32.78
2023-05-11T16:57:26.898Z,32.48
2023-05-11T16:59:53.506Z,32.49
2023-05-11T17:02:20.078Z,33.27
2023-05-11T17:04:46.663Z,32.68
2023-05-11T17:07:14.776Z,32.89
2023-05-11T17:09:41.649Z,32.94
2023-05-11T17:12:09.846Z,33.12
2023-05-11T17:14:36.707Z,33.09
2023-05-11T17:17:07.530Z,33.33
2023-05-11T17:19:34.548Z,33.01
2023-05-11T17:22:01.265Z,33.29
2023-05-11T17:24:28.497Z,33.70
2023-05-11T17:26:55.277Z,33.66
2023-05-11T17:29:21.715Z,34.18
2023-05-11T17:31:50.317Z,33.68
2023-05-11T17:34:17.888Z,34.24
2023-05-11T17:36:44.616Z,34.40
2023-05-11T17:39:11.925Z,34.35
2023-05-11T17:41:38.815Z,34.57
2023-05-11T17:44:05.856Z,34.17
2023-05-11T17:46:32.604Z,34.42
2023-05-11T17:48:59.110Z,34.48
2023-05-11T17:51:25.866Z,34.39
2023-05-11T17:53:52.283Z,34.97
2023-05-11T17:56:19.177Z,34.49
2023-05-11T17:58:45.770Z,34.21
2023-05-11T18:01:16.591Z,35.02
2023-05-11T18:03:43.832Z,35.07
2023-05-11T18:06:10.592Z,34.90
2023-05-11T18:08:37.001Z,35.61
2023-05-11T18:11:03.864Z,35.35
2023-05-11T18:13:31.591Z,35.14
2023-05-11T18:16:01.007Z,36.04
2023-05-11T18:18:27.454Z,35.96
2023-05-11T18:20:54.127Z,36.17
2023-05-11T18:23:20.849Z,36.04
2023-05-11T18:25:48.466Z,36.69
2023-05-11T18:28:15.052Z,36.88
2023-05-11T18:30:41.639Z,36.51
2023-05-11T18:33:09.756Z,37.21
2023-05-11T18:35:38.929Z,37.47
2023-05-11T18:38:05.672Z,37.41
2023-05-11T18:40:32.172Z,36.91
2023-05-11T18:42:58.591Z,36.51
2023-05-11T18:45:25.175Z,37.43
2023-05-11T18:47:51.872Z,38.17
2023-05-11T18:50:18.439Z,37.24
2023-05-11T18:52:45.220Z,37.35
2023-05-11T18:55:11.839Z,37.48
2023-05-11T18:57:39.678Z,38.10
2023-05-11T19:00:06.761Z,38.76
2023-05-11T19:02:34.018Z,38.25
2023-05-11T19:05:01.269Z,38.91
2023-05-11T19:07:28.553Z,39.12
2023-05-11T19:09:55.262Z,38.55
2023-05-11T19:12:21.868Z,38.99
2023-05-11T19:14:48.376Z,39.70
2023-05-11T19:17:14.890Z,39.19
2023-05-11T19:19:41.978Z,39.01
2023-05-11T19:22:09.353Z,39.50
2023-05-11T19:24:36.007Z,40.51
2023-05-11T19:27:07.906Z,38.99
2023-05-11T19:29:35.442Z,40.91
2023-05-11T19:32:02.552Z,39.46
2023-05-11T19:34:29.070Z,39.23
2023-05-11T19:36:55.489Z,40.22
2023-05-11T19:39:21.923Z,39.55
2023-05-11T19:41:48.436Z,39.36
2023-05-11T19:44:14.860Z,39.55
2023-05-11T19:46:46.347Z,40.21
2023-05-11T19:49:13.751Z,39.30
2023-05-11T19:51:40.373Z,39.07
2023-05-11T19:54:06.829Z,39.24
2023-05-11T19:56:33.781Z,40.04
2023-05-11T19:59:00.460Z,40.15
2023-05-11T20:01:27.273Z,41.68
2023-05-11T20:03:53.969Z,41.88
2023-05-11T20:06:20.569Z,41.64
2023-05-11T20:08:48.811Z,42.85
2023-05-11T20:11:15.580Z,42.08
2023-05-11T20:13:43.886Z,42.30
2023-05-11T20:16:10.757Z,41.91
2023-05-11T20:18:37.431Z,42.65
2023-05-11T20:21:04.303Z,43.12
2023-05-11T20:23:30.725Z,42.77
2023-05-11T20:25:57.185Z,42.59
2023-05-11T20:28:27.111Z,42.82
2023-05-11T20:30:55.125Z,44.17
2023-05-11T20:35:53.186Z,43.56
2023-05-11T20:38:20.203Z,44.62
2023-05-11T20:40:46.656Z,44.44
2023-05-11T20:43:14.773Z,44.50
2023-05-11T20:45:41.817Z,44.71
2023-05-11T20:48:08.539Z,44.71
2023-05-11T20:50:35.032Z,45.07
2023-05-11T20:53:01.529Z,44.98
2023-05-11T20:55:28.809Z,44.58
2023-05-11T20:57:55.275Z,44.44
2023-05-11T21:00:22.014Z,44.54
2023-05-11T21:02:49.020Z,45.53
2023-05-11T21:05:15.640Z,45.30
2023-05-11T21:07:43.098Z,45.26
2023-05-11T21:10:11.504Z,45.42
2023-05-11T21:12:37.927Z,45.49
2023-05-11T21:15:04.820Z,45.59
2023-05-11T21:17:31.394Z,45.25
2023-05-11T21:19:57.847Z,45.53
2023-05-11T21:22:24.298Z,45.15
2023-05-11T21:24:50.683Z,45.21
2023-05-11T21:27:17.263Z,45.54
2023-05-11T21:29:43.829Z,44.45
2023-05-11T21:32:10.489Z,44.53
2023-05-11T21:34:37.009Z,45.16
2023-05-11T21:37:03.601Z,45.74
2023-05-11T21:39:30.005Z,46.62
2023-05-11T21:41:56.907Z,46.16
2023-05-11T21:44:23.417Z,45.46
2023-05-11T21:46:50.473Z,45.82
2023-05-11T21:49:17.015Z,45.67
2023-05-11T21:51:43.620Z,46.76
2023-05-11T21:54:10.185Z,47.40
2023-05-11T21:56:36.901Z,47.48
2023-05-11T21:59:03.534Z,46.01
2023-05-11T22:01:29.992Z,46.76
2023-05-11T22:03:56.756Z,46.06
2023-05-11T22:06:23.335Z,47.35
2023-05-11T22:08:49.698Z,47.23
2023-05-11T22:11:16.129Z,49.21
2023-05-11T22:13:43.030Z,48.41
2023-05-11T22:16:09.432Z,48.74
2023-05-11T22:18:36.009Z,49.69
2023-05-11T22:21:02.747Z,49.00
2023-05-11T22:23:29.258Z,49.54
2023-05-11T22:25:55.659Z,49.70
2023-05-11T22:28:22.239Z,50.07
2023-05-11T22:30:48.641Z,50.56
2023-05-11T22:33:15.030Z,50.66
2023-05-11T22:35:42.436Z,51.91
2023-05-11T22:38:08.896Z,51.56
2023-05-11T22:40:35.348Z,49.97
2023-05-11T22:43:01.841Z,50.77
2023-05-11T22:45:28.261Z,51.43
2023-05-11T22:47:54.728Z,51.12
2023-05-11T22:50:21.451Z,52.79
2023-05-11T22:52:48.143Z,53.07
2023-05-11T22:55:14.691Z,53.01
2023-05-11T22:57:41.556Z,50.31
2023-05-11T23:00:11.645Z,51.05
2023-05-11T23:02:38.357Z,50.92
2023-05-11T23:05:05.361Z,51.04
2023-05-11T23:07:31.803Z,52.42
2023-05-11T23:09:58.302Z,52.80
2023-05-11T23:12:24.788Z,53.14
2023-05-11T23:14:52.416Z,53.97
2023-05-11T23:17:22.243Z,53.87
2023-05-11T23:19:49.470Z,55.16
2023-05-11T23:22:16.007Z,55.70
2023-05-11T23:24:42.761Z,55.48
2023-05-11T23:27:09.828Z,55.68
2023-05-11T23:29:37.259Z,56.42
2023-05-11T23:32:04.239Z,56.07
2023-05-11T23:34:30.658Z,55.60
2023-05-11T23:36:57.170Z,55.73
2023-05-11T23:39:24.120Z,55.64
2023-05-11T23:41:50.872Z,54.93
2023-05-11T23:44:17.924Z,55.28
2023-05-11T23:46:44.844Z,56.29
2023-05-11T23:49:11.370Z,55.98
2023-05-11T23:51:37.806Z,56.34
2023-05-11T23:54:04.425Z,56.34
2023-05-11T23:56:30.930Z,57.21
2023-05-11T23:58:57.428Z,57.18
